Time;durP1;ratioP1;P1;durP2;ratioP2;P2;SDS_P1;SDS_P2;PMS_P1;PMS_P2;Temp;Humidity;BMP_temperature;BMP_pressure;BME280_temperature;BME280_humidity;BME280_pressure;Samples;Min_cycle;Max_cycle;Signal;HPM_P1;HPM_P2
2022/01/29 00:02:10;;;;;;;2.13;1.48;;;9.70;99.90;;;;;;5055036;28;20075;-61
2022/01/29 00:04:37;;;;;;;1.38;1.23;;;9.80;99.90;;;;;;5058358;28;20076;-60
2022/01/29 00:07:04;;;;;;;3.97;1.42;;;9.80;99.90;;;;;;5058559;28;20049;-60
2022/01/29 00:09:31;;;;;;;1.25;1.00;;;9.80;99.90;;;;;;5055507;28;20136;-60
2022/01/29 00:11:57;;;;;;;2.22;1.23;;;9.80;99.90;;;;;;5056264;28;20701;-60
2022/01/29 00:14:25;;;;;;;1.60;1.27;;;9.80;99.90;;;;;;5054435;28;20532;-61
2022/01/29 00:16:51;;;;;;;1.90;1.00;;;9.90;99.90;;;;;;5053981;28;20450;-59
2022/01/29 00:19:18;;;;;;;1.20;1.10;;;9.90;99.90;;;;;;5055612;28;20143;-60
2022/01/29 00:21:45;;;;;;;2.15;1.23;;;9.90;99.90;;;;;;5058838;28;20082;-60
2022/01/29 00:24:12;;;;;;;1.13;0.95;;;9.90;99.90;;;;;;5053497;28;20048;-59
2022/01/29 00:26:39;;;;;;;3.03;1.23;;;9.90;99.90;;;;;;5052557;28;20553;-60
2022/01/29 00:29:16;;;;;;;2.15;1.15;;;9.90;99.90;;;;;;5058945;28;20587;-60
2022/01/29 00:31:42;;;;;;;2.38;1.10;;;9.90;99.90;;;;;;5038489;28;20056;-60
2022/01/29 00:34:09;;;;;;;1.45;1.20;;;9.90;99.90;;;;;;5047157;28;20132;-60
2022/01/29 00:36:36;;;;;;;1.35;1.15;;;9.90;99.90;;;;;;5059049;28;20068;-60
2022/01/29 00:39:03;;;;;;;3.15;1.23;;;9.90;99.90;;;;;;5047086;28;20131;-58
2022/01/29 00:41:29;;;;;;;1.80;1.20;;;10.00;99.90;;;;;;5055672;28;20081;-60
2022/01/29 00:43:57;;;;;;;1.52;1.35;;;9.90;99.90;;;;;;5066375;28;20076;-59
2022/01/29 00:46:24;;;;;;;1.80;1.25;;;9.90;99.90;;;;;;5062238;28;20045;-60
2022/01/29 00:48:51;;;;;;;1.90;1.00;;;10.00;99.90;;;;;;5048129;28;20057;-59
2022/01/29 00:51:18;;;;;;;1.75;1.10;;;10.00;99.90;;;;;;5051953;28;20073;-59
2022/01/29 00:53:44;;;;;;;2.40;1.13;;;10.10;99.90;;;;;;5049620;28;20110;-60
2022/01/29 00:56:11;;;;;;;1.73;1.10;;;10.10;99.90;;;;;;5037145;28;20037;-59
2022/01/29 00:58:38;;;;;;;2.55;0.90;;;10.10;99.90;;;;;;5064315;28;20080;-60
2022/01/29 01:01:05;;;;;;;2.83;1.00;;;10.10;99.90;;;;;;5066479;28;20681;-60
2022/01/29 01:03:32;;;;;;;1.30;0.90;;;10.10;99.90;;;;;;5058781;28;20411;-60
2022/01/29 01:05:58;;;;;;;3.38;1.20;;;10.10;99.90;;;;;;5054773;28;20530;-60
2022/01/29 01:08:25;;;;;;;2.10;1.00;;;10.10;99.90;;;;;;5059481;28;20557;-60
2022/01/29 01:10:52;;;;;;;1.27;0.80;;;10.20;99.90;;;;;;5065802;28;20132;-60
2022/01/29 01:13:19;;;;;;;1.13;1.00;;;10.10;99.90;;;;;;5059276;28;20101;-59
2022/01/29 01:15:45;;;;;;;1.35;1.00;;;10.10;99.90;;;;;;5048489;28;20139;-60
2022/01/29 01:18:12;;;;;;;1.15;0.85;;;10.10;99.90;;;;;;5056191;28;20040;-59
2022/01/29 01:20:39;;;;;;;2.42;1.13;;;10.10;99.90;;;;;;5068393;28;20072;-59
2022/01/29 01:23:06;;;;;;;1.15;1.02;;;10.10;99.90;;;;;;5054874;28;20095;-60
2022/01/29 01:25:32;;;;;;;1.50;0.88;;;10.10;99.90;;;;;;5067867;28;20083;-59
2022/01/29 01:27:59;;;;;;;3.25;0.80;;;10.20;99.90;;;;;;5063320;28;20048;-59
2022/01/29 01:30:26;;;;;;;2.05;0.82;;;10.20;99.90;;;;;;5047921;28;20473;-59
2022/01/29 01:32:53;;;;;;;2.45;0.90;;;10.10;99.90;;;;;;5051679;28;20061;-59
2022/01/29 01:35:25;;;;;;;0.77;0.60;;;10.20;99.90;;;;;;5066015;28;20145;-59
2022/01/29 01:37:57;;;;;;;1.33;1.00;;;10.20;99.90;;;;;;5058818;28;20484;-58
2022/01/29 01:40:26;;;;;;;2.22;0.73;;;10.20;99.90;;;;;;5065344;28;20056;-59
2022/01/29 01:42:59;;;;;;;0.65;0.63;;;10.20;99.90;;;;;;5056886;28;20116;-59
2022/01/29 01:45:29;;;;;;;2.03;0.90;;;10.30;99.90;;;;;;5066117;28;20560;-59
2022/01/29 01:47:56;;;;;;;1.30;0.80;;;10.30;99.90;;;;;;5065412;28;20080;-58
2022/01/29 01:50:23;;;;;;;1.63;0.85;;;10.30;99.90;;;;;;5055725;28;20542;-59
2022/01/29 01:52:50;;;;;;;4.18;1.00;;;10.20;99.90;;;;;;5053690;28;20082;-59
2022/01/29 01:55:17;;;;;;;3.70;0.80;;;10.30;99.90;;;;;;5057484;28;20057;-61
2022/01/29 01:57:44;;;;;;;1.45;0.80;;;10.30;99.90;;;;;;5053026;28;20572;-60
2022/01/29 02:00:11;;;;;;;5.05;0.77;;;10.30;99.90;;;;;;5057538;28;20083;-60
2022/01/29 02:02:38;;;;;;;1.25;0.73;;;10.30;99.90;;;;;;5064288;28;20106;-59
2022/01/29 02:05:05;;;;;;;1.15;0.70;;;10.30;99.90;;;;;;5058472;28;20049;-60
2022/01/29 02:07:32;;;;;;;1.17;0.77;;;10.30;99.90;;;;;;5048226;28;20049;-60
2022/01/29 02:09:59;;;;;;;0.73;0.73;;;10.20;99.90;;;;;;5032643;28;20052;-60
2022/01/29 02:12:29;;;;;;;2.65;0.88;;;10.30;99.90;;;;;;5067486;28;20110;-60
2022/01/29 02:15:01;;;;;;;0.85;0.60;;;10.30;99.90;;;;;;5059837;28;20469;-60
2022/01/29 02:17:28;;;;;;;1.77;0.80;;;10.30;99.90;;;;;;5047563;28;20071;-60
2022/01/29 02:19:55;;;;;;;1.63;0.80;;;10.30;99.90;;;;;;5051258;28;20053;-59
2022/01/29 02:22:22;;;;;;;1.35;0.55;;;10.30;99.90;;;;;;5067209;28;20628;-58
2022/01/29 02:24:48;;;;;;;2.30;0.90;;;10.30;99.90;;;;;;5062608;28;20087;-59
2022/01/29 02:27:15;;;;;;;0.57;0.55;;;10.30;99.90;;;;;;5067411;28;20073;-59
2022/01/29 02:29:44;;;;;;;1.30;0.75;;;10.30;99.90;;;;;;5062138;28;20091;-61
2022/01/29 02:32:11;;;;;;;0.70;0.40;;;10.30;99.90;;;;;;5048705;28;20049;-60
2022/01/29 02:34:38;;;;;;;1.40;0.77;;;10.30;99.90;;;;;;5033573;28;20049;-60
2022/01/29 02:37:04;;;;;;;2.80;0.80;;;10.30;99.90;;;;;;5062535;28;20102;-60
2022/01/29 02:39:31;;;;;;;0.75;0.43;;;10.40;99.90;;;;;;5062381;28;20048;-60
2022/01/29 02:41:58;;;;;;;0.90;0.55;;;10.40;99.90;;;;;;5061054;28;20557;-60
2022/01/29 02:44:25;;;;;;;2.42;0.70;;;10.30;99.90;;;;;;5063807;28;20123;-60
2022/01/29 02:46:54;;;;;;;1.85;0.60;;;10.40;99.90;;;;;;5057952;28;20044;-60
2022/01/29 02:49:23;;;;;;;1.00;0.63;;;10.40;99.90;;;;;;5062764;28;20409;-60
2022/01/29 02:51:52;;;;;;;0.90;0.50;;;10.40;99.90;;;;;;5055893;28;20127;-60
2022/01/29 02:54:19;;;;;;;1.42;0.60;;;10.40;99.90;;;;;;5046821;28;20182;-59
2022/01/29 02:56:46;;;;;;;3.83;0.50;;;10.40;99.90;;;;;;5057708;28;20682;-59
2022/01/29 02:59:13;;;;;;;0.75;0.40;;;10.40;99.90;;;;;;5046993;28;20126;-60
2022/01/29 03:01:39;;;;;;;1.27;0.50;;;10.40;99.90;;;;;;5054900;28;20072;-60
2022/01/29 03:04:06;;;;;;;1.33;0.55;;;10.40;99.90;;;;;;5066321;28;20487;-60
2022/01/29 03:06:33;;;;;;;0.80;0.60;;;10.40;99.90;;;;;;5059382;28;20480;-60
2022/01/29 03:09:00;;;;;;;1.48;0.60;;;10.40;99.90;;;;;;5029112;28;20084;-61
2022/01/29 03:11:27;;;;;;;1.77;0.98;;;10.50;99.90;;;;;;5058916;28;20105;-60
2022/01/29 03:13:54;;;;;;;1.00;0.40;;;10.50;99.90;;;;;;5046699;28;20095;-60
2022/01/29 03:16:21;;;;;;;0.35;0.20;;;10.50;99.90;;;;;;5050637;28;20520;-59
2022/01/29 03:18:48;;;;;;;1.60;0.50;;;10.50;99.90;;;;;;5064829;28;20045;-60
2022/01/29 03:21:14;;;;;;;4.70;1.50;;;10.50;99.90;;;;;;5064782;28;20084;-61
2022/01/29 03:23:41;;;;;;;1.50;0.43;;;10.50;99.90;;;;;;5054288;28;20084;-61
2022/01/29 03:26:08;;;;;;;0.88;0.40;;;10.60;99.90;;;;;;5054206;28;20083;-61
2022/01/29 03:28:36;;;;;;;0.70;0.30;;;10.60;99.90;;;;;;5064141;28;20058;-59
2022/01/29 03:31:03;;;;;;;0.63;0.55;;;10.60;99.90;;;;;;5047968;28;20540;-60
2022/01/29 03:33:30;;;;;;;0.20;0.20;;;10.60;99.90;;;;;;5057706;28;20045;-60
2022/01/29 03:35:57;;;;;;;2.47;0.30;;;10.60;99.90;;;;;;5054072;28;20080;-59
2022/01/29 03:38:24;;;;;;;0.47;0.40;;;10.60;99.90;;;;;;5059511;28;20076;-60
2022/01/29 03:40:51;;;;;;;2.58;0.60;;;10.70;99.90;;;;;;5033428;28;20052;-60
2022/01/29 03:43:32;;;;;;;0.63;0.60;;;10.60;99.90;;;;;;5061435;28;20103;-60
2022/01/29 03:45:59;;;;;;;1.10;0.50;;;10.60;99.90;;;;;;5051393;28;20091;-60
2022/01/29 03:48:26;;;;;;;0.38;0.30;;;10.60;99.90;;;;;;5062881;28;20048;-60
2022/01/29 03:50:53;;;;;;;0.32;0.32;;;10.60;99.90;;;;;;5051163;28;20081;-64
2022/01/29 03:53:19;;;;;;;1.23;0.50;;;10.70;99.90;;;;;;5059825;28;20102;-60
2022/01/29 03:55:46;;;;;;;1.90;0.40;;;10.60;99.90;;;;;;5071062;28;20144;-60
2022/01/29 03:58:13;;;;;;;0.40;0.40;;;10.60;99.90;;;;;;5057944;28;20138;-61
2022/01/29 04:00:40;;;;;;;2.45;0.60;;;10.70;99.90;;;;;;5070458;28;20560;-61
2022/01/29 04:03:08;;;;;;;1.90;0.50;;;10.70;99.90;;;;;;5061766;28;20079;-60
2022/01/29 04:05:35;;;;;;;1.85;0.50;;;10.70;99.90;;;;;;5062100;28;20052;-60
2022/01/29 04:08:02;;;;;;;1.27;0.55;;;10.70;99.90;;;;;;5065293;28;20127;-59
2022/01/29 04:10:29;;;;;;;0.95;0.50;;;10.70;99.90;;;;;;5069636;28;20074;-59
2022/01/29 04:12:57;;;;;;;1.98;0.65;;;10.70;99.90;;;;;;5065089;28;20066;-59
2022/01/29 04:15:24;;;;;;;1.35;0.57;;;10.70;99.90;;;;;;5053543;28;20056;-59
2022/01/29 04:17:50;;;;;;;2.25;0.43;;;10.70;99.90;;;;;;5053178;28;20052;-59
2022/01/29 04:20:17;;;;;;;3.50;0.60;;;10.70;99.90;;;;;;5063451;28;20087;-59
2022/01/29 04:22:44;;;;;;;1.02;0.52;;;10.70;99.90;;;;;;5067835;28;20472;-59
2022/01/29 04:25:11;;;;;;;0.63;0.40;;;10.70;99.90;;;;;;5044478;28;20055;-59
2022/01/29 04:27:42;;;;;;;4.20;0.88;;;10.70;99.90;;;;;;5066325;28;20104;-60
2022/01/29 04:30:15;;;;;;;2.17;0.80;;;10.70;99.90;;;;;;5059039;28;20040;-60
2022/01/29 04:35:14;;;;;;;0.30;0.30;;;10.70;99.90;;;;;;5057894;28;20478;-59
2022/01/29 04:37:41;;;;;;;0.30;0.30;;;10.70;99.90;;;;;;5049518;28;20120;-59
2022/01/29 04:40:08;;;;;;;0.43;0.43;;;10.70;99.90;;;;;;5061381;28;20539;-60
2022/01/29 04:42:35;;;;;;;1.40;0.60;;;10.70;99.90;;;;;;5061284;28;20048;-60
2022/01/29 04:45:02;;;;;;;0.75;0.55;;;10.70;99.90;;;;;;5060864;28;20201;-59
2022/01/29 04:47:29;;;;;;;0.55;0.50;;;10.70;99.90;;;;;;5048747;28;20127;-60
2022/01/29 04:49:56;;;;;;;1.52;0.50;;;10.80;99.90;;;;;;5063798;28;20087;-59
2022/01/29 04:52:23;;;;;;;2.15;0.65;;;10.80;99.90;;;;;;5030984;28;20107;-59
2022/01/29 04:54:50;;;;;;;0.88;0.45;;;10.80;99.90;;;;;;5034759;28;20132;-59
2022/01/29 04:57:16;;;;;;;3.67;0.52;;;10.80;99.90;;;;;;5048221;28;20056;-59
2022/01/29 04:59:43;;;;;;;1.70;0.68;;;10.90;99.90;;;;;;5052324;28;20073;-59
2022/01/29 05:02:10;;;;;;;1.35;0.70;;;10.90;99.90;;;;;;5065725;28;20048;-59
2022/01/29 05:04:37;;;;;;;1.65;1.25;;;10.90;99.90;;;;;;5060079;28;20057;-60
2022/01/29 05:07:04;;;;;;;1.48;0.63;;;10.90;99.90;;;;;;5063925;28;20052;-59
2022/01/29 05:09:31;;;;;;;1.20;0.75;;;11.10;99.90;;;;;;5063951;28;20048;-60
2022/01/29 05:12:00;;;;;;;0.70;0.63;;;10.90;99.90;;;;;;5054940;28;20095;-60
2022/01/29 05:14:40;;;;;;;0.82;0.60;;;11.00;99.90;;;;;;5052190;28;20097;-60
2022/01/29 05:26:49;;;;;;;1.25;0.70;;;10.90;99.90;;;;;;5060873;28;20138;-60
2022/01/29 05:28:10;;;;;;;1.77;0.80;;;10.90;99.90;;;;;;5049148;28;20080;-60
2022/01/29 05:30:36;;;;;;;3.65;1.05;;;10.80;99.90;;;;;;5051767;28;20076;-60
2022/01/29 05:33:03;;;;;;;1.92;0.80;;;10.80;99.90;;;;;;5064540;28;20045;-61
2022/01/29 05:35:30;;;;;;;1.52;0.60;;;10.90;99.90;;;;;;5063639;28;20040;-60
2022/01/29 05:37:57;;;;;;;0.63;0.60;;;10.90;99.90;;;;;;5053475;28;20087;-60
2022/01/29 05:40:24;;;;;;;1.52;0.80;;;10.90;99.90;;;;;;5052000;28;20108;-60
2022/01/29 05:42:50;;;;;;;1.88;0.85;;;10.90;99.90;;;;;;5062103;28;20098;-60
2022/01/29 05:45:17;;;;;;;1.13;0.80;;;10.80;99.90;;;;;;5065325;28;20079;-61
2022/01/29 05:47:45;;;;;;;1.00;0.65;;;10.90;99.90;;;;;;5056922;28;20119;-61
2022/01/29 05:50:12;;;;;;;0.85;0.85;;;10.80;99.90;;;;;;5065183;28;20095;-61
2022/01/29 05:52:38;;;;;;;1.33;0.73;;;10.80;99.90;;;;;;5057199;28;20040;-60
2022/01/29 05:55:06;;;;;;;0.85;0.70;;;10.90;99.90;;;;;;5049787;28;20045;-60
2022/01/29 05:57:33;;;;;;;3.03;0.93;;;10.90;99.90;;;;;;5058531;28;20073;-60
2022/01/29 06:00:00;;;;;;;2.20;0.90;;;10.80;99.90;;;;;;5047088;28;20230;-59
2022/01/29 06:02:26;;;;;;;2.17;0.77;;;10.80;99.90;;;;;;5059336;28;20083;-59
2022/01/29 06:04:53;;;;;;;1.63;0.60;;;10.80;99.90;;;;;;5047185;28;20055;-60
2022/01/29 06:07:20;;;;;;;1.05;0.50;;;10.80;99.90;;;;;;5059549;28;20091;-59
2022/01/29 06:09:48;;;;;;;0.63;0.60;;;10.80;99.90;;;;;;5047176;28;20080;-59
2022/01/29 06:12:14;;;;;;;0.95;0.63;;;10.80;99.90;;;;;;5051476;28;20045;-59
2022/01/29 06:14:41;;;;;;;1.75;1.10;;;10.80;99.90;;;;;;5048420;28;20086;-60
2022/01/29 06:17:08;;;;;;;0.68;0.52;;;10.80;99.90;;;;;;5058187;28;20757;-60
2022/01/29 06:19:35;;;;;;;1.13;0.70;;;10.80;99.90;;;;;;5063803;28;20080;-58
2022/01/29 06:22:07;;;;;;;2.22;0.70;;;10.80;99.90;;;;;;5062970;28;20503;-60
2022/01/29 06:24:34;;;;;;;1.00;0.65;;;10.90;99.90;;;;;;5052374;28;20041;-59
2022/01/29 06:27:01;;;;;;;1.42;0.70;;;10.90;99.90;;;;;;5051507;28;20044;-59
2022/01/29 06:29:27;;;;;;;2.40;0.60;;;10.80;99.90;;;;;;5059118;28;20048;-59
2022/01/29 06:31:54;;;;;;;1.80;0.57;;;10.90;99.90;;;;;;5062377;28;20084;-61
2022/01/29 06:34:21;;;;;;;0.68;0.60;;;10.90;99.90;;;;;;5056853;28;20045;-58
2022/01/29 06:36:48;;;;;;;1.08;0.50;;;10.90;99.90;;;;;;5049928;28;20129;-59
2022/01/29 06:39:15;;;;;;;0.82;0.50;;;10.90;99.90;;;;;;5038354;28;20087;-59
2022/01/29 06:41:41;;;;;;;0.90;0.40;;;10.80;99.90;;;;;;5062487;28;20511;-60
2022/01/29 06:44:08;;;;;;;1.15;0.70;;;10.80;99.90;;;;;;5055474;28;20102;-60
2022/01/29 06:46:37;;;;;;;0.40;0.40;;;10.80;99.90;;;;;;5067175;28;20156;-60
2022/01/29 06:49:04;;;;;;;1.05;1.00;;;10.90;99.90;;;;;;5059346;28;20053;-60
2022/01/29 06:51:31;;;;;;;0.77;0.30;;;10.80;99.90;;;;;;5047036;28;20057;-60
2022/01/29 06:53:57;;;;;;;0.82;0.45;;;10.80;99.90;;;;;;5052323;28;20088;-60
2022/01/29 06:56:25;;;;;;;3.35;0.50;;;10.80;99.90;;;;;;5069818;28;20136;-60
2022/01/29 06:58:54;;;;;;;1.40;0.43;;;10.80;99.90;;;;;;5066306;28;20044;-60
2022/01/29 07:01:38;;;;;;;0.80;0.47;;;10.80;99.90;;;;;;5050314;28;20067;-60
2022/01/29 07:04:05;;;;;;;3.25;0.40;;;10.70;99.90;;;;;;5036415;28;20053;-60
2022/01/29 07:06:32;;;;;;;1.00;0.50;;;10.80;99.90;;;;;;5070087;28;20079;-60
2022/01/29 07:08:59;;;;;;;0.77;0.50;;;10.80;99.90;;;;;;5066192;28;20124;-60
2022/01/29 07:11:26;;;;;;;1.35;0.40;;;10.80;99.90;;;;;;5053411;28;20081;-60
2022/01/29 07:14:01;;;;;;;0.30;0.30;;;10.80;99.90;;;;;;5054523;28;20135;-60
2022/01/29 07:16:31;;;;;;;4.22;0.55;;;10.80;99.90;;;;;;5066474;28;20559;-60
2022/01/29 07:18:58;;;;;;;0.82;0.50;;;10.70;99.90;;;;;;5066423;28;20052;-60
2022/01/29 07:21:25;;;;;;;0.30;0.30;;;10.70;99.90;;;;;;5056286;28;20049;-60
2022/01/29 07:23:52;;;;;;;2.70;0.47;;;10.70;99.90;;;;;;5055785;28;20895;-59
2022/01/29 07:26:18;;;;;;;0.40;0.40;;;10.70;99.90;;;;;;5044944;28;20041;-59
2022/01/29 07:28:45;;;;;;;5.60;0.50;;;10.80;99.90;;;;;;5066010;28;20127;-60
2022/01/29 07:31:18;;;;;;;2.40;0.85;;;10.70;99.90;;;;;;5059728;28;20053;-59
2022/01/29 07:33:45;;;;;;;0.80;0.40;;;10.70;99.90;;;;;;5052749;28;20487;-59
2022/01/29 07:36:11;;;;;;;0.57;0.38;;;10.70;99.90;;;;;;5061798;28;20080;-60
2022/01/29 07:38:39;;;;;;;0.75;0.38;;;10.70;99.90;;;;;;5064695;28;20106;-60
2022/01/29 07:41:06;;;;;;;0.90;0.60;;;10.70;99.90;;;;;;5064148;28;20048;-60
2022/01/29 07:43:32;;;;;;;0.68;0.40;;;10.70;99.90;;;;;;5053154;28;20080;-59
2022/01/29 07:45:59;;;;;;;0.57;0.35;;;10.70;99.90;;;;;;5061187;28;20049;-60
2022/01/29 07:48:26;;;;;;;1.90;0.50;;;10.70;99.90;;;;;;5059867;28;20133;-61
2022/01/29 07:50:53;;;;;;;0.75;0.43;;;10.70;99.90;;;;;;4705152;28;10000454;-61
2022/01/29 07:53:20;;;;;;;0.60;0.32;;;10.70;99.90;;;;;;5058199;28;20145;-60
2022/01/29 07:55:46;;;;;;;0.73;0.40;;;10.70;99.90;;;;;;5052027;28;20155;-59
2022/01/29 07:58:13;;;;;;;1.05;0.38;;;10.70;99.90;;;;;;5056666;28;20076;-60
2022/01/29 08:00:40;;;;;;;0.75;0.30;;;10.70;99.90;;;;;;5038113;28;20148;-60
2022/01/29 08:03:07;;;;;;;3.13;0.20;;;10.70;99.90;;;;;;5051356;28;20048;-60
2022/01/29 08:05:35;;;;;;;1.45;0.30;;;10.70;99.90;;;;;;5032267;28;20059;-61
2022/01/29 08:08:02;;;;;;;1.35;0.40;;;10.70;99.90;;;;;;5052987;28;20135;-61
2022/01/29 08:10:29;;;;;;;2.17;0.38;;;10.70;99.90;;;;;;5054357;28;20058;-60
2022/01/29 08:12:55;;;;;;;1.08;0.60;;;10.70;99.90;;;;;;5055854;28;20071;-60
2022/01/29 08:15:22;;;;;;;0.38;0.30;;;10.70;99.90;;;;;;5058616;28;20053;-60
2022/01/29 08:17:50;;;;;;;2.83;0.30;;;10.70;99.90;;;;;;5038009;28;20052;-60
2022/01/29 08:20:17;;;;;;;1.20;0.35;;;10.70;99.90;;;;;;5049484;28;20088;-60
2022/01/29 08:22:43;;;;;;;0.50;0.40;;;10.70;99.90;;;;;;5058756;28;20185;-60
2022/01/29 08:25:10;;;;;;;2.83;0.90;;;10.70;99.90;;;;;;5035825;28;20583;-59
2022/01/29 08:27:37;;;;;;;0.85;0.30;;;10.70;99.90;;;;;;5054395;28;20048;-59
2022/01/29 08:30:05;;;;;;;0.20;0.20;;;10.80;99.90;;;;;;5054676;28;20072;-59
2022/01/29 08:32:31;;;;;;;2.42;0.40;;;10.80;99.90;;;;;;5057557;28;20155;-60
2022/01/29 08:34:58;;;;;;;0.55;0.30;;;10.80;99.90;;;;;;5057168;28;20084;-60
2022/01/29 08:37:25;;;;;;;5.63;0.50;;;10.80;99.90;;;;;;5034597;28;20073;-60
2022/01/29 08:39:55;;;;;;;0.95;0.60;;;10.80;99.90;;;;;;5049684;28;20048;-61
2022/01/29 08:42:22;;;;;;;1.67;0.40;;;10.80;99.90;;;;;;5055925;28;20400;-61
2022/01/29 08:44:49;;;;;;;0.20;0.20;;;10.80;99.90;;;;;;5059594;28;20074;-60
2022/01/29 08:47:16;;;;;;;0.20;0.20;;;10.80;99.90;;;;;;5054234;28;20114;-60
2022/01/29 08:49:43;;;;;;;2.28;0.50;;;10.70;99.90;;;;;;5053500;28;20138;-60
2022/01/29 08:52:10;;;;;;;0.93;0.30;;;10.80;99.90;;;;;;5055831;28;20407;-59
2022/01/29 08:54:38;;;;;;;1.52;0.30;;;10.80;99.90;;;;;;5057943;28;20082;-60
2022/01/29 08:57:05;;;;;;;0.43;0.40;;;10.80;99.90;;;;;;5054347;28;20075;-59
2022/01/29 08:59:32;;;;;;;4.72;0.50;;;10.90;99.90;;;;;;5056197;28;20051;-60
2022/01/29 09:01:59;;;;;;;1.15;0.55;;;11.00;99.90;;;;;;5055461;28;20182;-59
2022/01/29 09:04:26;;;;;;;1.75;0.35;;;11.00;99.90;;;;;;5057047;28;20624;-59
2022/01/29 09:06:53;;;;;;;1.25;0.55;;;11.00;99.90;;;;;;5054840;28;20057;-60
2022/01/29 09:09:25;;;;;;;0.30;0.30;;;11.10;99.90;;;;;;5055588;28;20155;-60
2022/01/29 09:12:00;;;;;;;0.85;0.30;;;11.10;99.90;;;;;;5060601;28;20044;-60
2022/01/29 09:14:27;;;;;;;4.25;0.40;;;11.20;99.70;;;;;;5055333;28;20131;-59
2022/01/29 09:16:54;;;;;;;2.33;0.50;;;11.30;99.80;;;;;;5044074;28;20092;-59
2022/01/29 09:19:21;;;;;;;0.95;0.43;;;11.30;99.70;;;;;;5054588;28;20049;-60
2022/01/29 09:21:48;;;;;;;1.13;0.47;;;11.20;99.40;;;;;;5046600;28;20080;-60
2022/01/29 09:24:15;;;;;;;0.75;0.50;;;11.20;99.70;;;;;;5051420;28;20143;-60
2022/01/29 09:26:42;;;;;;;0.75;0.50;;;11.20;99.60;;;;;;5064159;28;20147;-60
2022/01/29 09:29:08;;;;;;;1.10;0.40;;;11.20;99.50;;;;;;5034822;28;20073;-59
2022/01/29 09:31:35;;;;;;;1.35;0.57;;;11.20;99.50;;;;;;5066931;28;20044;-58
2022/01/29 09:34:02;;;;;;;1.25;0.40;;;11.20;99.50;;;;;;5054974;28;20053;-58
2022/01/29 09:36:29;;;;;;;0.70;0.30;;;11.10;99.60;;;;;;5048486;28;20105;-58
2022/01/29 09:38:56;;;;;;;0.77;0.50;;;11.10;99.40;;;;;;5063351;28;20075;-58
2022/01/29 09:41:26;;;;;;;1.45;0.40;;;11.20;99.40;;;;;;5064500;28;20605;-59
2022/01/29 09:43:54;;;;;;;1.58;0.60;;;11.30;99.20;;;;;;5033549;28;20095;-59
2022/01/29 09:46:21;;;;;;;0.90;0.43;;;11.40;99.60;;;;;;5062686;28;20060;-58
2022/01/29 09:48:52;;;;;;;5.28;0.57;;;11.40;98.90;;;;;;5045755;28;20499;-59
2022/01/29 09:51:19;;;;;;;2.70;0.50;;;11.40;98.80;;;;;;5020661;28;20072;-59
2022/01/29 09:53:45;;;;;;;0.82;0.30;;;11.50;99.20;;;;;;5050458;28;20049;-57
2022/01/29 09:56:13;;;;;;;3.47;0.60;;;11.50;99.40;;;;;;5055729;28;20103;-58
2022/01/29 09:58:40;;;;;;;1.40;0.43;;;11.60;99.00;;;;;;5033343;28;20048;-59
2022/01/29 10:01:07;;;;;;;1.67;0.70;;;11.60;99.20;;;;;;5055569;28;20091;-58
2022/01/29 10:03:34;;;;;;;1.65;0.68;;;11.60;99.10;;;;;;5064406;28;20063;-58
2022/01/29 10:06:02;;;;;;;2.92;0.73;;;11.60;98.60;;;;;;5057794;28;20076;-60
2022/01/29 10:08:30;;;;;;;2.38;0.95;;;11.50;98.70;;;;;;5048317;28;20076;-59
2022/01/29 10:10:58;;;;;;;2.55;0.60;;;11.60;98.90;;;;;;5056069;28;20076;-60
2022/01/29 10:13:25;;;;;;;2.30;0.73;;;11.60;98.90;;;;;;5067355;28;20106;-60
2022/01/29 10:15:52;;;;;;;1.23;0.70;;;11.60;99.00;;;;;;5059532;28;20057;-59
2022/01/29 10:18:23;;;;;;;1.35;0.50;;;11.70;98.90;;;;;;5046503;28;20079;-59
2022/01/29 10:20:50;;;;;;;4.57;0.77;;;11.70;98.90;;;;;;5042444;28;20090;-58
2022/01/29 10:23:17;;;;;;;1.35;0.50;;;11.70;98.40;;;;;;5067187;28;20473;-59
2022/01/29 10:25:44;;;;;;;2.05;0.47;;;11.70;98.40;;;;;;5055865;28;20084;-59
2022/01/29 10:28:16;;;;;;;4.85;0.63;;;11.70;98.70;;;;;;5032362;28;20073;-59
2022/01/29 10:30:49;;;;;;;1.95;0.50;;;11.80;98.40;;;;;;5059227;28;20076;-59
2022/01/29 10:33:38;;;;;;;4.13;0.65;;;11.80;98.30;;;;;;5069987;28;20049;-59
2022/01/29 10:36:24;;;;;;;4.38;1.45;;;11.80;98.00;;;;;;5066725;28;20082;-56
2022/01/29 10:38:55;;;;;;;4.50;0.60;;;11.90;98.00;;;;;;5051100;28;20044;-59
2022/01/29 10:41:30;;;;;;;2.45;0.57;;;11.90;97.90;;;;;;4708644;28;10000706;-58
2022/01/29 10:44:14;;;;;;;7.57;0.75;;;12.00;97.60;;;;;;5048157;28;20049;-59
2022/01/29 10:46:45;;;;;;;0.75;0.52;;;12.10;97.80;;;;;;5053075;28;20087;-60
2022/01/29 10:49:20;;;;;;;2.03;0.75;;;12.10;97.80;;;;;;5066593;28;20095;-56
2022/01/29 10:52:16;;;;;;;1.30;0.60;;;12.10;97.40;;;;;;5061293;28;20052;-58
2022/01/29 10:54:51;;;;;;;1.88;0.68;;;12.20;97.30;;;;;;5033516;28;20049;-59
2022/01/29 10:57:20;;;;;;;2.60;0.80;;;12.30;97.20;;;;;;5062118;28;20546;-58
2022/01/29 10:59:50;;;;;;;4.22;0.85;;;12.30;97.10;;;;;;5067078;28;20407;-59
2022/01/29 11:02:18;;;;;;;0.70;0.40;;;12.30;97.00;;;;;;5062218;28;20080;-59
2022/01/29 11:04:45;;;;;;;1.63;0.60;;;12.40;97.20;;;;;;5067108;28;20431;-58
2022/01/29 11:07:17;;;;;;;7.45;1.27;;;12.50;97.00;;;;;;5063689;28;20048;-61
2022/01/29 11:09:50;;;;;;;4.60;1.10;;;12.50;96.70;;;;;;5047916;28;20491;-58
2022/01/29 11:12:21;;;;;;;1.02;0.90;;;12.60;96.30;;;;;;5052155;28;20668;-59
2022/01/29 11:14:49;;;;;;;0.93;0.55;;;12.60;96.20;;;;;;5049721;28;20072;-57
2022/01/29 11:17:19;;;;;;;3.28;0.75;;;12.60;96.00;;;;;;5045048;28;20063;-59
2022/01/29 11:19:46;;;;;;;4.85;0.90;;;12.60;96.50;;;;;;5067706;28;20058;-58
2022/01/29 11:22:12;;;;;;;6.55;0.90;;;12.60;96.70;;;;;;5063414;28;20049;-59
2022/01/29 11:24:41;;;;;;;3.55;1.00;;;12.60;96.30;;;;;;5030307;28;20048;-60
2022/01/29 11:27:25;;;;;;;4.22;0.88;;;12.60;96.30;;;;;;5016339;28;20049;-59
2022/01/29 11:30:07;;;;;;;3.70;0.80;;;12.60;96.10;;;;;;5063275;28;20079;-59
2022/01/29 11:32:47;;;;;;;1.30;0.50;;;12.60;96.10;;;;;;5047219;28;20067;-58
2022/01/29 11:35:16;;;;;;;3.70;0.73;;;12.70;95.80;;;;;;5032276;28;20053;-58
2022/01/29 11:37:53;;;;;;;2.63;0.70;;;12.70;95.80;;;;;;5051142;28;20045;-58
2022/01/29 11:40:20;;;;;;;4.75;0.93;;;12.70;95.70;;;;;;5063690;28;20049;-59
2022/01/29 11:43:06;;;;;;;5.25;0.95;;;12.80;95.70;;;;;;5062567;28;20052;-59
2022/01/29 11:45:45;;;;;;;6.88;1.33;;;12.80;95.60;;;;;;5050188;28;20103;-59
2022/01/29 11:48:25;;;;;;;4.15;0.68;;;12.90;95.70;;;;;;5058408;28;20095;-57
2022/01/29 11:50:53;;;;;;;5.38;1.10;;;12.90;95.60;;;;;;5048203;28;20053;-60
2022/01/29 11:53:22;;;;;;;6.90;0.90;;;12.90;95.80;;;;;;5054904;28;20101;-60
2022/01/29 11:55:56;;;;;;;1.92;0.77;;;13.00;95.80;;;;;;5049729;28;20068;-57
2022/01/29 11:58:27;;;;;;;10.02;0.90;;;13.00;95.50;;;;;;5056628;28;20076;-61
2022/01/29 12:00:55;;;;;;;3.90;0.85;;;13.00;95.50;;;;;;5049547;28;20094;-58
2022/01/29 12:03:35;;;;;;;4.55;0.70;;;13.00;95.40;;;;;;5042392;28;20059;-58
2022/01/29 12:09:02;;;;;;;0.90;0.60;;;13.00;95.20;;;;;;5062548;28;20463;-58
2022/01/29 12:11:41;;;;;;;1.92;0.55;;;13.00;95.10;;;;;;5048727;28;20049;-57
2022/01/29 12:14:15;;;;;;;4.07;0.85;;;13.10;95.20;;;;;;5033228;28;20076;-59
2022/01/29 12:16:58;;;;;;;3.35;0.52;;;13.20;94.90;;;;;;5064520;28;20091;-59
2022/01/29 12:19:46;;;;;;;9.98;1.48;;;13.20;95.00;;;;;;5061927;28;20044;-61
2022/01/29 12:22:17;;;;;;;2.97;0.65;;;13.20;94.70;;;;;;5046663;28;20057;-59
2022/01/29 12:24:56;;;;;;;3.45;1.10;;;13.00;94.70;;;;;;5050537;28;20053;-59
2022/01/29 12:27:23;;;;;;;3.10;0.70;;;13.20;95.20;;;;;;5046508;28;20049;-58
2022/01/29 12:29:50;;;;;;;12.68;1.77;;;13.30;95.20;;;;;;5050091;28;20057;-60
2022/01/29 12:32:19;;;;;;;4.05;1.27;;;13.30;95.10;;;;;;5064946;28;20060;-59
2022/01/29 12:34:55;;;;;;;3.05;0.77;;;13.20;94.80;;;;;;5061761;28;20687;-56
2022/01/29 12:37:22;;;;;;;13.18;1.10;;;13.20;95.30;;;;;;5065739;28;20048;-59
2022/01/29 12:39:50;;;;;;;8.05;1.92;;;13.30;95.40;;;;;;5057642;28;20053;-59
2022/01/29 12:44:57;;;;;;;11.77;2.10;;;13.30;95.40;;;;;;5057484;28;20091;-59
2022/01/29 12:47:31;;;;;;;3.70;1.13;;;13.30;95.10;;;;;;5055785;28;20052;-59
2022/01/29 12:49:58;;;;;;;6.38;0.98;;;13.30;95.00;;;;;;5056437;28;20045;-59
2022/01/29 12:52:25;;;;;;;2.63;0.80;;;13.30;95.00;;;;;;5036874;28;20045;-58
2022/01/29 12:54:55;;;;;;;10.85;1.40;;;13.20;95.00;;;;;;5037827;28;20158;-59
2022/01/29 12:57:21;;;;;;;3.85;1.10;;;13.20;95.20;;;;;;5051109;28;20132;-58
2022/01/29 12:59:48;;;;;;;5.78;0.80;;;13.20;95.30;;;;;;5030002;28;20128;-56
2022/01/29 13:02:35;;;;;;;11.70;1.55;;;13.20;95.40;;;;;;5052884;28;20053;-58
2022/01/29 13:05:04;;;;;;;7.40;1.10;;;13.20;95.50;;;;;;5030384;28;20094;-58
2022/01/29 13:07:34;;;;;;;11.18;1.25;;;13.20;95.40;;;;;;5055269;28;20057;-56
2022/01/29 13:10:01;;;;;;;3.05;1.05;;;13.10;95.40;;;;;;5046831;28;20110;-59
2022/01/29 13:12:27;;;;;;;4.43;1.00;;;13.30;95.50;;;;;;5054899;28;20579;-58